Terminal Aerodrome Forecast
Issued by NWS Wichita, KS

Home | Current Version | Previous Version | Graphics & Text | Print | Product List | Glossary On
Versions: 1 2 3 4 5 6 7 8 9 10 11 12 13 14 15 16
000
FTUS43 KICT 181400 AAA
TAFICT
TAF AMD
KICT 181402Z 1814/1912 16008KT P6SM SKC
      TEMPO 1814/1815 4SM BR
     FM181800 17015G22KT P6SM SCT035
     FM190100 16012KT P6SM SCT050=

USA.gov is the U.S. government's official web portal to all federal, state and local government web resources and services.